sensor_id;sensor_type;location;lat;lon;timestamp;P1;durP1;ratioP1;P2;durP2;ratioP2
17488;SDS011;8861;52.644;4.734;2022-07-09T00:01:06;5.83;;;3.93;;
17488;SDS011;8861;52.644;4.734;2022-07-09T00:03:33;5.10;;;4.10;;
17488;SDS011;8861;52.644;4.734;2022-07-09T00:06:00;4.50;;;3.80;;
17488;SDS011;8861;52.644;4.734;2022-07-09T00:08:28;5.10;;;3.90;;
17488;SDS011;8861;52.644;4.734;2022-07-09T00:10:55;5.63;;;3.93;;
17488;SDS011;8861;52.644;4.734;2022-07-09T00:13:22;6.30;;;4.17;;
17488;SDS011;8861;52.644;4.734;2022-07-09T00:15:50;5.63;;;4.40;;
17488;SDS011;8861;52.644;4.734;2022-07-09T00:18:18;6.13;;;4.07;;
17488;SDS011;8861;52.644;4.734;2022-07-09T00:20:45;5.73;;;3.57;;
17488;SDS011;8861;52.644;4.734;2022-07-09T00:23:12;4.67;;;4.00;;
17488;SDS011;8861;52.644;4.734;2022-07-09T00:25:39;7.17;;;4.43;;
17488;SDS011;8861;52.644;4.734;2022-07-09T00:28:06;7.63;;;4.40;;
17488;SDS011;8861;52.644;4.734;2022-07-09T00:30:33;4.17;;;3.73;;
17488;SDS011;8861;52.644;4.734;2022-07-09T00:33:01;6.07;;;3.90;;
17488;SDS011;8861;52.644;4.734;2022-07-09T00:35:28;4.40;;;3.90;;
17488;SDS011;8861;52.644;4.734;2022-07-09T00:37:55;6.73;;;4.23;;
17488;SDS011;8861;52.644;4.734;2022-07-09T00:40:22;6.27;;;4.20;;
17488;SDS011;8861;52.644;4.734;2022-07-09T00:42:49;6.47;;;4.23;;
17488;SDS011;8861;52.644;4.734;2022-07-09T00:45:16;6.37;;;4.30;;
17488;SDS011;8861;52.644;4.734;2022-07-09T00:47:43;4.87;;;3.80;;
17488;SDS011;8861;52.644;4.734;2022-07-09T00:50:14;4.90;;;4.00;;
17488;SDS011;8861;52.644;4.734;2022-07-09T00:52:41;4.47;;;3.53;;
17488;SDS011;8861;52.644;4.734;2022-07-09T00:55:09;4.00;;;3.60;;
17488;SDS011;8861;52.644;4.734;2022-07-09T00:57:38;3.90;;;3.50;;
17488;SDS011;8861;52.644;4.734;2022-07-09T01:00:06;4.70;;;3.60;;
17488;SDS011;8861;52.644;4.734;2022-07-09T01:02:33;5.27;;;3.90;;
17488;SDS011;8861;52.644;4.734;2022-07-09T01:05:00;5.13;;;3.57;;
17488;SDS011;8861;52.644;4.734;2022-07-09T01:07:29;3.50;;;3.20;;
17488;SDS011;8861;52.644;4.734;2022-07-09T01:09:56;3.53;;;3.10;;
17488;SDS011;8861;52.644;4.734;2022-07-09T01:12:22;3.30;;;3.00;;
17488;SDS011;8861;52.644;4.734;2022-07-09T01:14:49;3.40;;;3.07;;
17488;SDS011;8861;52.644;4.734;2022-07-09T01:17:16;3.83;;;3.23;;
17488;SDS011;8861;52.644;4.734;2022-07-09T01:19:43;4.63;;;3.83;;
17488;SDS011;8861;52.644;4.734;2022-07-09T01:22:12;4.70;;;4.10;;
17488;SDS011;8861;52.644;4.734;2022-07-09T01:24:38;5.37;;;3.63;;
17488;SDS011;8861;52.644;4.734;2022-07-09T01:27:06;3.90;;;3.33;;
17488;SDS011;8861;52.644;4.734;2022-07-09T01:29:33;4.37;;;3.97;;
17488;SDS011;8861;52.644;4.734;2022-07-09T01:32:00;6.57;;;3.80;;
17488;SDS011;8861;52.644;4.734;2022-07-09T01:34:27;4.07;;;3.57;;
17488;SDS011;8861;52.644;4.734;2022-07-09T01:36:54;4.53;;;3.47;;
17488;SDS011;8861;52.644;4.734;2022-07-09T01:39:22;3.73;;;3.30;;
17488;SDS011;8861;52.644;4.734;2022-07-09T01:41:49;3.50;;;3.20;;
17488;SDS011;8861;52.644;4.734;2022-07-09T01:44:16;3.20;;;2.80;;
17488;SDS011;8861;52.644;4.734;2022-07-09T01:46:43;3.90;;;3.50;;
17488;SDS011;8861;52.644;4.734;2022-07-09T01:49:10;4.60;;;3.17;;
17488;SDS011;8861;52.644;4.734;2022-07-09T01:51:37;3.50;;;2.93;;
17488;SDS011;8861;52.644;4.734;2022-07-09T01:54:03;4.10;;;3.10;;
17488;SDS011;8861;52.644;4.734;2022-07-09T01:56:32;3.80;;;3.03;;
17488;SDS011;8861;52.644;4.734;2022-07-09T01:59:00;3.50;;;3.20;;
17488;SDS011;8861;52.644;4.734;2022-07-09T02:01:27;5.00;;;3.40;;
17488;SDS011;8861;52.644;4.734;2022-07-09T02:03:53;3.80;;;2.93;;
17488;SDS011;8861;52.644;4.734;2022-07-09T02:06:20;3.50;;;3.20;;
17488;SDS011;8861;52.644;4.734;2022-07-09T02:08:47;4.17;;;2.80;;
17488;SDS011;8861;52.644;4.734;2022-07-09T02:11:14;4.77;;;3.67;;
17488;SDS011;8861;52.644;4.734;2022-07-09T02:13:43;3.73;;;3.30;;
17488;SDS011;8861;52.644;4.734;2022-07-09T02:16:09;3.17;;;2.87;;
17488;SDS011;8861;52.644;4.734;2022-07-09T02:18:36;3.03;;;2.80;;
17488;SDS011;8861;52.644;4.734;2022-07-09T02:21:04;3.40;;;3.10;;
17488;SDS011;8861;52.644;4.734;2022-07-09T02:23:32;2.87;;;2.37;;
17488;SDS011;8861;52.644;4.734;2022-07-09T02:25:59;3.33;;;3.03;;
17488;SDS011;8861;52.644;4.734;2022-07-09T02:28:25;4.07;;;2.77;;
17488;SDS011;8861;52.644;4.734;2022-07-09T02:30:54;2.80;;;2.60;;
17488;SDS011;8861;52.644;4.734;2022-07-09T02:33:22;3.10;;;2.90;;
17488;SDS011;8861;52.644;4.734;2022-07-09T02:35:49;3.20;;;2.90;;
17488;SDS011;8861;52.644;4.734;2022-07-09T02:38:16;2.90;;;2.70;;
17488;SDS011;8861;52.644;4.734;2022-07-09T02:40:46;4.27;;;3.00;;
17488;SDS011;8861;52.644;4.734;2022-07-09T02:43:13;3.57;;;3.07;;
17488;SDS011;8861;52.644;4.734;2022-07-09T02:45:40;3.87;;;3.47;;
17488;SDS011;8861;52.644;4.734;2022-07-09T02:48:08;4.97;;;3.73;;
17488;SDS011;8861;52.644;4.734;2022-07-09T02:50:35;5.30;;;3.60;;
17488;SDS011;8861;52.644;4.734;2022-07-09T02:53:02;3.83;;;3.33;;
17488;SDS011;8861;52.644;4.734;2022-07-09T02:55:29;4.43;;;3.60;;
17488;SDS011;8861;52.644;4.734;2022-07-09T02:57:56;4.03;;;3.50;;
17488;SDS011;8861;52.644;4.734;2022-07-09T03:00:23;3.73;;;3.40;;
17488;SDS011;8861;52.644;4.734;2022-07-09T03:02:50;4.87;;;3.47;;
17488;SDS011;8861;52.644;4.734;2022-07-09T03:05:18;4.77;;;3.33;;
17488;SDS011;8861;52.644;4.734;2022-07-09T03:07:45;3.73;;;3.40;;
17488;SDS011;8861;52.644;4.734;2022-07-09T03:10:12;4.10;;;3.30;;
17488;SDS011;8861;52.644;4.734;2022-07-09T03:12:39;4.20;;;3.30;;
17488;SDS011;8861;52.644;4.734;2022-07-09T03:15:06;4.23;;;3.40;;
17488;SDS011;8861;52.644;4.734;2022-07-09T03:17:34;3.63;;;2.90;;
17488;SDS011;8861;52.644;4.734;2022-07-09T03:20:01;3.40;;;2.77;;
17488;SDS011;8861;52.644;4.734;2022-07-09T03:22:29;2.93;;;2.70;;
17488;SDS011;8861;52.644;4.734;2022-07-09T03:24:56;2.67;;;2.47;;
17488;SDS011;8861;52.644;4.734;2022-07-09T03:27:23;3.33;;;2.80;;
17488;SDS011;8861;52.644;4.734;2022-07-09T03:29:50;4.13;;;3.23;;
17488;SDS011;8861;52.644;4.734;2022-07-09T03:32:17;3.00;;;2.70;;
17488;SDS011;8861;52.644;4.734;2022-07-09T03:34:44;3.50;;;3.17;;
17488;SDS011;8861;52.644;4.734;2022-07-09T03:37:10;3.20;;;2.90;;
17488;SDS011;8861;52.644;4.734;2022-07-09T03:39:39;3.83;;;3.30;;
17488;SDS011;8861;52.644;4.734;2022-07-09T03:42:06;3.30;;;3.00;;
17488;SDS011;8861;52.644;4.734;2022-07-09T03:44:33;3.30;;;3.00;;
17488;SDS011;8861;52.644;4.734;2022-07-09T03:47:00;3.23;;;2.83;;
17488;SDS011;8861;52.644;4.734;2022-07-09T03:49:27;4.70;;;3.00;;
17488;SDS011;8861;52.644;4.734;2022-07-09T03:51:54;2.80;;;2.60;;
17488;SDS011;8861;52.644;4.734;2022-07-09T03:54:21;3.80;;;3.00;;
17488;SDS011;8861;52.644;4.734;2022-07-09T03:56:50;2.97;;;2.70;;
17488;SDS011;8861;52.644;4.734;2022-07-09T03:59:17;3.20;;;2.90;;
17488;SDS011;8861;52.644;4.734;2022-07-09T04:01:44;2.67;;;2.47;;
17488;SDS011;8861;52.644;4.734;2022-07-09T04:04:11;2.90;;;2.70;;
17488;SDS011;8861;52.644;4.734;2022-07-09T04:06:38;4.10;;;3.53;;
17488;SDS011;8861;52.644;4.734;2022-07-09T04:09:05;3.63;;;3.33;;
17488;SDS011;8861;52.644;4.734;2022-07-09T04:11:32;4.23;;;3.30;;
17488;SDS011;8861;52.644;4.734;2022-07-09T04:14:00;3.97;;;3.37;;
17488;SDS011;8861;52.644;4.734;2022-07-09T04:16:28;4.50;;;3.70;;
17488;SDS011;8861;52.644;4.734;2022-07-09T04:18:55;3.90;;;3.50;;
17488;SDS011;8861;52.644;4.734;2022-07-09T04:21:22;3.67;;;3.30;;
17488;SDS011;8861;52.644;4.734;2022-07-09T04:23:49;3.30;;;3.00;;
17488;SDS011;8861;52.644;4.734;2022-07-09T04:26:16;4.30;;;3.87;;
17488;SDS011;8861;52.644;4.734;2022-07-09T04:28:43;5.37;;;4.70;;
17488;SDS011;8861;52.644;4.734;2022-07-09T04:31:12;6.53;;;4.23;;
17488;SDS011;8861;52.644;4.734;2022-07-09T04:33:41;6.73;;;4.30;;
17488;SDS011;8861;52.644;4.734;2022-07-09T04:36:08;4.20;;;3.60;;
17488;SDS011;8861;52.644;4.734;2022-07-09T04:38:35;5.73;;;5.13;;
17488;SDS011;8861;52.644;4.734;2022-07-09T04:41:02;7.10;;;5.50;;
17488;SDS011;8861;52.644;4.734;2022-07-09T04:43:29;5.57;;;4.87;;
17488;SDS011;8861;52.644;4.734;2022-07-09T04:45:56;5.87;;;4.60;;
17488;SDS011;8861;52.644;4.734;2022-07-09T04:48:25;5.77;;;4.23;;
17488;SDS011;8861;52.644;4.734;2022-07-09T04:50:52;7.10;;;5.47;;
17488;SDS011;8861;52.644;4.734;2022-07-09T04:53:19;6.43;;;5.20;;
17488;SDS011;8861;52.644;4.734;2022-07-09T04:55:46;6.87;;;5.20;;
17488;SDS011;8861;52.644;4.734;2022-07-09T04:58:13;6.97;;;6.20;;
17488;SDS011;8861;52.644;4.734;2022-07-09T05:00:40;6.63;;;5.40;;
17488;SDS011;8861;52.644;4.734;2022-07-09T05:03:07;6.57;;;4.77;;
17488;SDS011;8861;52.644;4.734;2022-07-09T05:08:04;7.03;;;5.53;;
17488;SDS011;8861;52.644;4.734;2022-07-09T05:10:31;5.20;;;4.70;;
17488;SDS011;8861;52.644;4.734;2022-07-09T05:12:58;5.33;;;4.67;;
17488;SDS011;8861;52.644;4.734;2022-07-09T05:15:25;4.77;;;4.27;;
17488;SDS011;8861;52.644;4.734;2022-07-09T05:17:52;5.77;;;4.53;;
17488;SDS011;8861;52.644;4.734;2022-07-09T05:20:19;4.63;;;4.20;;
17488;SDS011;8861;52.644;4.734;2022-07-09T05:22:47;7.63;;;4.60;;
17488;SDS011;8861;52.644;4.734;2022-07-09T05:25:14;6.90;;;4.83;;
17488;SDS011;8861;52.644;4.734;2022-07-09T05:27:42;7.00;;;4.57;;
17488;SDS011;8861;52.644;4.734;2022-07-09T05:30:09;5.27;;;4.50;;
17488;SDS011;8861;52.644;4.734;2022-07-09T05:32:38;4.83;;;4.27;;
17488;SDS011;8861;52.644;4.734;2022-07-09T05:35:05;4.87;;;3.83;;
17488;SDS011;8861;52.644;4.734;2022-07-09T05:37:32;4.50;;;3.40;;
17488;SDS011;8861;52.644;4.734;2022-07-09T05:40:01;4.20;;;3.80;;
17488;SDS011;8861;52.644;4.734;2022-07-09T05:42:31;5.40;;;3.70;;
17488;SDS011;8861;52.644;4.734;2022-07-09T05:44:58;6.43;;;4.43;;
17488;SDS011;8861;52.644;4.734;2022-07-09T05:47:25;6.03;;;3.90;;
17488;SDS011;8861;52.644;4.734;2022-07-09T05:49:52;5.23;;;3.40;;
17488;SDS011;8861;52.644;4.734;2022-07-09T05:52:19;3.93;;;3.13;;
17488;SDS011;8861;52.644;4.734;2022-07-09T05:54:46;4.90;;;3.13;;
17488;SDS011;8861;52.644;4.734;2022-07-09T05:57:14;3.60;;;3.10;;
17488;SDS011;8861;52.644;4.734;2022-07-09T05:59:44;4.47;;;2.80;;
17488;SDS011;8861;52.644;4.734;2022-07-09T06:02:11;3.93;;;2.80;;
17488;SDS011;8861;52.644;4.734;2022-07-09T06:04:38;3.70;;;2.87;;
17488;SDS011;8861;52.644;4.734;2022-07-09T06:07:05;4.67;;;2.70;;
17488;SDS011;8861;52.644;4.734;2022-07-09T06:09:32;3.43;;;2.40;;
17488;SDS011;8861;52.644;4.734;2022-07-09T06:11:59;4.20;;;2.80;;
17488;SDS011;8861;52.644;4.734;2022-07-09T06:14:27;3.57;;;2.47;;
17488;SDS011;8861;52.644;4.734;2022-07-09T06:16:54;4.37;;;2.50;;
17488;SDS011;8861;52.644;4.734;2022-07-09T06:19:21;4.30;;;2.10;;
17488;SDS011;8861;52.644;4.734;2022-07-09T06:21:48;5.37;;;3.00;;
17488;SDS011;8861;52.644;4.734;2022-07-09T06:24:15;3.37;;;2.30;;
17488;SDS011;8861;52.644;4.734;2022-07-09T06:26:42;4.60;;;2.30;;
17488;SDS011;8861;52.644;4.734;2022-07-09T06:29:11;4.03;;;2.20;;
17488;SDS011;8861;52.644;4.734;2022-07-09T06:31:40;3.40;;;2.27;;
17488;SDS011;8861;52.644;4.734;2022-07-09T06:34:06;5.70;;;2.03;;
17488;SDS011;8861;52.644;4.734;2022-07-09T06:36:33;3.27;;;2.00;;
17488;SDS011;8861;52.644;4.734;2022-07-09T06:39:00;3.57;;;2.20;;
17488;SDS011;8861;52.644;4.734;2022-07-09T06:41:45;3.33;;;2.17;;
17488;SDS011;8861;52.644;4.734;2022-07-09T06:44:12;2.47;;;2.00;;
17488;SDS011;8861;52.644;4.734;2022-07-09T06:46:40;3.60;;;1.90;;
17488;SDS011;8861;52.644;4.734;2022-07-09T06:49:07;4.13;;;1.90;;
17488;SDS011;8861;52.644;4.734;2022-07-09T06:51:34;3.17;;;1.90;;
17488;SDS011;8861;52.644;4.734;2022-07-09T06:54:00;4.70;;;1.90;;
17488;SDS011;8861;52.644;4.734;2022-07-09T06:56:27;3.50;;;2.00;;
17488;SDS011;8861;52.644;4.734;2022-07-09T06:58:54;2.87;;;1.70;;
17488;SDS011;8861;52.644;4.734;2022-07-09T07:01:21;3.57;;;1.97;;
17488;SDS011;8861;52.644;4.734;2022-07-09T07:03:49;3.93;;;1.97;;
17488;SDS011;8861;52.644;4.734;2022-07-09T07:06:17;3.37;;;2.00;;
17488;SDS011;8861;52.644;4.734;2022-07-09T07:08:44;3.13;;;1.80;;
17488;SDS011;8861;52.644;4.734;2022-07-09T07:11:11;2.70;;;1.63;;
17488;SDS011;8861;52.644;4.734;2022-07-09T07:13:38;4.70;;;2.10;;
17488;SDS011;8861;52.644;4.734;2022-07-09T07:16:05;4.43;;;1.70;;
17488;SDS011;8861;52.644;4.734;2022-07-09T07:18:32;4.33;;;1.83;;
17488;SDS011;8861;52.644;4.734;2022-07-09T07:21:01;3.50;;;1.83;;
17488;SDS011;8861;52.644;4.734;2022-07-09T07:23:28;3.60;;;1.90;;
17488;SDS011;8861;52.644;4.734;2022-07-09T07:25:56;5.37;;;1.93;;
17488;SDS011;8861;52.644;4.734;2022-07-09T07:28:24;4.53;;;1.87;;
17488;SDS011;8861;52.644;4.734;2022-07-09T07:30:51;4.60;;;2.10;;
17488;SDS011;8861;52.644;4.734;2022-07-09T07:33:18;5.00;;;1.70;;
17488;SDS011;8861;52.644;4.734;2022-07-09T07:35:45;3.77;;;1.80;;
17488;SDS011;8861;52.644;4.734;2022-07-09T07:38:13;5.20;;;2.17;;
17488;SDS011;8861;52.644;4.734;2022-07-09T07:40:40;3.23;;;1.70;;
17488;SDS011;8861;52.644;4.734;2022-07-09T07:43:09;3.77;;;1.83;;
17488;SDS011;8861;52.644;4.734;2022-07-09T07:45:37;4.57;;;1.80;;
17488;SDS011;8861;52.644;4.734;2022-07-09T07:48:04;5.77;;;2.10;;
17488;SDS011;8861;52.644;4.734;2022-07-09T07:50:31;3.80;;;1.90;;
17488;SDS011;8861;52.644;4.734;2022-07-09T07:53:00;5.40;;;1.80;;
17488;SDS011;8861;52.644;4.734;2022-07-09T07:55:28;5.30;;;1.90;;
17488;SDS011;8861;52.644;4.734;2022-07-09T07:57:55;4.47;;;1.80;;
17488;SDS011;8861;52.644;4.734;2022-07-09T08:00:22;3.40;;;1.60;;
17488;SDS011;8861;52.644;4.734;2022-07-09T08:02:49;6.17;;;1.80;;
17488;SDS011;8861;52.644;4.734;2022-07-09T08:05:17;4.40;;;1.70;;
17488;SDS011;8861;52.644;4.734;2022-07-09T08:07:44;4.33;;;1.60;;
17488;SDS011;8861;52.644;4.734;2022-07-09T08:10:11;3.10;;;1.73;;
17488;SDS011;8861;52.644;4.734;2022-07-09T08:12:39;2.77;;;1.60;;
17488;SDS011;8861;52.644;4.734;2022-07-09T08:15:06;5.47;;;2.00;;
17488;SDS011;8861;52.644;4.734;2022-07-09T08:17:34;6.10;;;2.03;;
17488;SDS011;8861;52.644;4.734;2022-07-09T08:20:01;7.03;;;2.27;;
17488;SDS011;8861;52.644;4.734;2022-07-09T08:22:27;5.33;;;1.90;;
17488;SDS011;8861;52.644;4.734;2022-07-09T08:24:54;6.00;;;1.97;;
17488;SDS011;8861;52.644;4.734;2022-07-09T08:27:21;5.37;;;2.00;;
17488;SDS011;8861;52.644;4.734;2022-07-09T08:29:50;6.43;;;2.00;;
17488;SDS011;8861;52.644;4.734;2022-07-09T08:32:17;4.10;;;1.70;;
17488;SDS011;8861;52.644;4.734;2022-07-09T08:34:43;4.90;;;1.73;;
17488;SDS011;8861;52.644;4.734;2022-07-09T08:37:10;7.60;;;2.20;;
17488;SDS011;8861;52.644;4.734;2022-07-09T08:39:37;6.27;;;2.07;;
17488;SDS011;8861;52.644;4.734;2022-07-09T08:42:05;8.03;;;2.10;;
17488;SDS011;8861;52.644;4.734;2022-07-09T08:44:36;9.23;;;2.40;;
17488;SDS011;8861;52.644;4.734;2022-07-09T08:47:08;4.97;;;2.10;;
17488;SDS011;8861;52.644;4.734;2022-07-09T08:49:36;7.13;;;2.13;;
17488;SDS011;8861;52.644;4.734;2022-07-09T08:52:04;5.23;;;2.10;;
17488;SDS011;8861;52.644;4.734;2022-07-09T08:54:33;5.30;;;1.90;;
17488;SDS011;8861;52.644;4.734;2022-07-09T08:57:02;4.50;;;1.83;;
17488;SDS011;8861;52.644;4.734;2022-07-09T08:59:30;5.77;;;1.70;;
17488;SDS011;8861;52.644;4.734;2022-07-09T09:01:57;7.13;;;1.97;;
17488;SDS011;8861;52.644;4.734;2022-07-09T09:04:30;7.10;;;2.03;;
17488;SDS011;8861;52.644;4.734;2022-07-09T09:06:59;3.50;;;1.90;;
17488;SDS011;8861;52.644;4.734;2022-07-09T09:09:26;4.40;;;1.80;;
17488;SDS011;8861;52.644;4.734;2022-07-09T09:11:53;7.07;;;2.10;;
17488;SDS011;8861;52.644;4.734;2022-07-09T09:14:23;4.80;;;1.77;;
17488;SDS011;8861;52.644;4.734;2022-07-09T09:16:50;6.67;;;2.13;;
17488;SDS011;8861;52.644;4.734;2022-07-09T09:19:17;9.00;;;2.13;;
17488;SDS011;8861;52.644;4.734;2022-07-09T09:21:49;6.63;;;2.30;;
17488;SDS011;8861;52.644;4.734;2022-07-09T09:24:21;5.47;;;2.20;;
17488;SDS011;8861;52.644;4.734;2022-07-09T09:26:49;6.27;;;2.10;;
17488;SDS011;8861;52.644;4.734;2022-07-09T09:29:16;5.77;;;2.20;;
17488;SDS011;8861;52.644;4.734;2022-07-09T09:31:44;4.77;;;2.00;;
17488;SDS011;8861;52.644;4.734;2022-07-09T09:34:14;3.87;;;2.10;;
17488;SDS011;8861;52.644;4.734;2022-07-09T09:36:42;5.50;;;2.17;;
17488;SDS011;8861;52.644;4.734;2022-07-09T09:39:13;7.23;;;2.10;;
17488;SDS011;8861;52.644;4.734;2022-07-09T09:41:42;6.23;;;2.00;;
17488;SDS011;8861;52.644;4.734;2022-07-09T09:44:10;4.97;;;2.20;;
17488;SDS011;8861;52.644;4.734;2022-07-09T09:46:38;6.30;;;2.10;;
17488;SDS011;8861;52.644;4.734;2022-07-09T09:49:07;3.53;;;1.70;;
17488;SDS011;8861;52.644;4.734;2022-07-09T09:51:36;4.57;;;1.90;;
17488;SDS011;8861;52.644;4.734;2022-07-09T09:54:07;4.03;;;1.83;;
17488;SDS011;8861;52.644;4.734;2022-07-09T09:56:37;4.73;;;1.80;;
17488;SDS011;8861;52.644;4.734;2022-07-09T09:59:05;3.60;;;1.90;;
17488;SDS011;8861;52.644;4.734;2022-07-09T10:01:32;4.17;;;1.70;;
17488;SDS011;8861;52.644;4.734;2022-07-09T10:03:59;4.03;;;2.00;;
17488;SDS011;8861;52.644;4.734;2022-07-09T10:06:27;3.97;;;1.83;;
17488;SDS011;8861;52.644;4.734;2022-07-09T10:08:54;3.47;;;1.83;;
17488;SDS011;8861;52.644;4.734;2022-07-09T10:11:22;4.53;;;2.10;;
17488;SDS011;8861;52.644;4.734;2022-07-09T10:13:54;5.23;;;1.77;;
17488;SDS011;8861;52.644;4.734;2022-07-09T10:16:34;3.67;;;1.93;;
17488;SDS011;8861;52.644;4.734;2022-07-09T10:19:02;7.17;;;2.27;;
17488;SDS011;8861;52.644;4.734;2022-07-09T10:21:33;4.63;;;2.03;;
17488;SDS011;8861;52.644;4.734;2022-07-09T10:24:01;4.50;;;1.93;;
17488;SDS011;8861;52.644;4.734;2022-07-09T10:26:45;4.40;;;1.90;;
17488;SDS011;8861;52.644;4.734;2022-07-09T10:29:21;3.73;;;2.00;;
17488;SDS011;8861;52.644;4.734;2022-07-09T10:31:49;5.20;;;2.20;;
17488;SDS011;8861;52.644;4.734;2022-07-09T10:34:23;5.47;;;2.03;;
17488;SDS011;8861;52.644;4.734;2022-07-09T10:37:04;5.47;;;2.03;;
17488;SDS011;8861;52.644;4.734;2022-07-09T10:39:31;5.57;;;2.10;;
17488;SDS011;8861;52.644;4.734;2022-07-09T10:41:59;5.30;;;1.80;;
17488;SDS011;8861;52.644;4.734;2022-07-09T10:44:28;4.43;;;1.90;;
17488;SDS011;8861;52.644;4.734;2022-07-09T10:47:00;4.30;;;1.80;;
17488;SDS011;8861;52.644;4.734;2022-07-09T10:49:29;3.67;;;2.00;;
17488;SDS011;8861;52.644;4.734;2022-07-09T10:51:56;4.67;;;2.07;;
17488;SDS011;8861;52.644;4.734;2022-07-09T10:54:24;8.77;;;2.20;;
17488;SDS011;8861;52.644;4.734;2022-07-09T10:56:52;6.50;;;2.23;;
17488;SDS011;8861;52.644;4.734;2022-07-09T10:59:19;8.23;;;2.37;;
17488;SDS011;8861;52.644;4.734;2022-07-09T11:01:49;4.87;;;2.10;;
17488;SDS011;8861;52.644;4.734;2022-07-09T11:04:26;6.83;;;2.20;;
17488;SDS011;8861;52.644;4.734;2022-07-09T11:06:54;6.80;;;2.30;;
17488;SDS011;8861;52.644;4.734;2022-07-09T11:09:21;6.90;;;2.53;;
17488;SDS011;8861;52.644;4.734;2022-07-09T11:11:48;8.37;;;2.40;;
17488;SDS011;8861;52.644;4.734;2022-07-09T11:14:16;6.60;;;2.30;;
17488;SDS011;8861;52.644;4.734;2022-07-09T11:16:53;3.57;;;1.93;;
17488;SDS011;8861;52.644;4.734;2022-07-09T11:19:21;6.70;;;2.40;;
17488;SDS011;8861;52.644;4.734;2022-07-09T11:21:49;5.13;;;2.17;;
17488;SDS011;8861;52.644;4.734;2022-07-09T11:24:17;3.53;;;1.80;;
17488;SDS011;8861;52.644;4.734;2022-07-09T11:26:47;4.60;;;2.23;;
17488;SDS011;8861;52.644;4.734;2022-07-09T11:29:16;5.50;;;2.23;;
17488;SDS011;8861;52.644;4.734;2022-07-09T11:31:46;4.57;;;2.20;;
17488;SDS011;8861;52.644;4.734;2022-07-09T11:34:16;5.03;;;2.30;;
17488;SDS011;8861;52.644;4.734;2022-07-09T11:36:44;6.57;;;2.77;;
17488;SDS011;8861;52.644;4.734;2022-07-09T11:39:22;6.63;;;2.47;;
17488;SDS011;8861;52.644;4.734;2022-07-09T11:41:50;7.63;;;2.50;;
17488;SDS011;8861;52.644;4.734;2022-07-09T11:44:20;6.80;;;2.40;;
17488;SDS011;8861;52.644;4.734;2022-07-09T11:47:01;5.17;;;2.20;;
17488;SDS011;8861;52.644;4.734;2022-07-09T11:49:34;6.33;;;2.27;;
17488;SDS011;8861;52.644;4.734;2022-07-09T11:52:03;6.27;;;2.43;;
17488;SDS011;8861;52.644;4.734;2022-07-09T11:54:32;4.27;;;2.10;;
17488;SDS011;8861;52.644;4.734;2022-07-09T11:56:59;4.87;;;1.90;;
17488;SDS011;8861;52.644;4.734;2022-07-09T11:59:26;5.57;;;2.07;;
17488;SDS011;8861;52.644;4.734;2022-07-09T12:01:56;3.20;;;1.80;;
17488;SDS011;8861;52.644;4.734;2022-07-09T12:04:28;6.13;;;1.70;;
17488;SDS011;8861;52.644;4.734;2022-07-09T12:06:57;4.73;;;1.70;;
17488;SDS011;8861;52.644;4.734;2022-07-09T12:09:28;5.30;;;1.67;;
17488;SDS011;8861;52.644;4.734;2022-07-09T12:11:56;3.97;;;1.40;;
17488;SDS011;8861;52.644;4.734;2022-07-09T12:14:23;3.43;;;1.40;;
17488;SDS011;8861;52.644;4.734;2022-07-09T12:16:50;3.07;;;1.57;;
17488;SDS011;8861;52.644;4.734;2022-07-09T12:19:17;3.80;;;1.23;;
17488;SDS011;8861;52.644;4.734;2022-07-09T12:21:44;4.50;;;1.20;;
17488;SDS011;8861;52.644;4.734;2022-07-09T12:24:12;3.73;;;1.50;;
17488;SDS011;8861;52.644;4.734;2022-07-09T12:26:39;3.60;;;1.43;;
17488;SDS011;8861;52.644;4.734;2022-07-09T12:29:06;3.00;;;1.20;;
17488;SDS011;8861;52.644;4.734;2022-07-09T12:31:33;3.70;;;1.37;;
17488;SDS011;8861;52.644;4.734;2022-07-09T12:34:02;3.30;;;1.50;;
17488;SDS011;8861;52.644;4.734;2022-07-09T12:36:30;3.00;;;1.47;;
17488;SDS011;8861;52.644;4.734;2022-07-09T12:38:57;4.63;;;1.50;;
17488;SDS011;8861;52.644;4.734;2022-07-09T12:41:26;3.43;;;1.37;;
17488;SDS011;8861;52.644;4.734;2022-07-09T12:43:53;4.37;;;1.60;;
17488;SDS011;8861;52.644;4.734;2022-07-09T12:46:20;4.73;;;1.53;;
17488;SDS011;8861;52.644;4.734;2022-07-09T12:48:46;4.27;;;1.30;;
17488;SDS011;8861;52.644;4.734;2022-07-09T12:51:13;5.03;;;1.90;;
17488;SDS011;8861;52.644;4.734;2022-07-09T12:53:40;4.83;;;1.70;;
17488;SDS011;8861;52.644;4.734;2022-07-09T12:56:07;5.97;;;2.60;;
17488;SDS011;8861;52.644;4.734;2022-07-09T12:58:35;5.70;;;2.10;;
17488;SDS011;8861;52.644;4.734;2022-07-09T13:01:02;4.73;;;1.87;;
17488;SDS011;8861;52.644;4.734;2022-07-09T13:03:29;5.97;;;1.83;;
17488;SDS011;8861;52.644;4.734;2022-07-09T13:05:56;2.60;;;1.50;;
17488;SDS011;8861;52.644;4.734;2022-07-09T13:08:23;3.63;;;1.70;;
17488;SDS011;8861;52.644;4.734;2022-07-09T13:10:50;3.13;;;1.50;;
17488;SDS011;8861;52.644;4.734;2022-07-09T13:13:17;3.70;;;1.80;;
17488;SDS011;8861;52.644;4.734;2022-07-09T13:15:46;4.47;;;1.63;;
17488;SDS011;8861;52.644;4.734;2022-07-09T13:18:13;3.93;;;1.53;;
17488;SDS011;8861;52.644;4.734;2022-07-09T13:20:40;3.57;;;1.60;;
17488;SDS011;8861;52.644;4.734;2022-07-09T13:23:07;5.13;;;1.80;;
17488;SDS011;8861;52.644;4.734;2022-07-09T13:25:35;7.43;;;1.90;;
17488;SDS011;8861;52.644;4.734;2022-07-09T13:28:02;4.97;;;1.67;;
17488;SDS011;8861;52.644;4.734;2022-07-09T13:30:29;6.57;;;1.90;;
17488;SDS011;8861;52.644;4.734;2022-07-09T13:32:57;6.40;;;1.80;;
17488;SDS011;8861;52.644;4.734;2022-07-09T13:35:24;6.37;;;1.90;;
17488;SDS011;8861;52.644;4.734;2022-07-09T13:37:51;4.37;;;1.60;;
17488;SDS011;8861;52.644;4.734;2022-07-09T13:40:18;6.10;;;1.70;;
17488;SDS011;8861;52.644;4.734;2022-07-09T13:42:45;3.50;;;1.40;;
17488;SDS011;8861;52.644;4.734;2022-07-09T13:45:12;5.60;;;1.90;;
17488;SDS011;8861;52.644;4.734;2022-07-09T13:47:39;2.87;;;1.70;;
17488;SDS011;8861;52.644;4.734;2022-07-09T13:50:08;4.37;;;1.70;;
17488;SDS011;8861;52.644;4.734;2022-07-09T13:52:35;3.63;;;1.70;;
17488;SDS011;8861;52.644;4.734;2022-07-09T13:55:02;4.23;;;1.70;;
17488;SDS011;8861;52.644;4.734;2022-07-09T13:57:30;2.80;;;1.40;;
17488;SDS011;8861;52.644;4.734;2022-07-09T13:59:57;2.73;;;1.40;;
17488;SDS011;8861;52.644;4.734;2022-07-09T14:02:24;4.53;;;1.77;;
17488;SDS011;8861;52.644;4.734;2022-07-09T14:04:51;7.13;;;1.90;;
17488;SDS011;8861;52.644;4.734;2022-07-09T14:07:20;6.13;;;1.50;;
17488;SDS011;8861;52.644;4.734;2022-07-09T14:09:47;6.67;;;1.80;;
17488;SDS011;8861;52.644;4.734;2022-07-09T14:12:14;3.33;;;1.47;;
17488;SDS011;8861;52.644;4.734;2022-07-09T14:14:42;5.33;;;1.60;;
17488;SDS011;8861;52.644;4.734;2022-07-09T14:17:09;4.57;;;1.53;;
17488;SDS011;8861;52.644;4.734;2022-07-09T14:19:36;3.07;;;1.40;;
17488;SDS011;8861;52.644;4.734;2022-07-09T14:22:03;6.60;;;1.60;;
17488;SDS011;8861;52.644;4.734;2022-07-09T14:24:31;3.93;;;1.60;;
17488;SDS011;8861;52.644;4.734;2022-07-09T14:26:58;4.87;;;1.60;;
17488;SDS011;8861;52.644;4.734;2022-07-09T14:29:25;5.03;;;1.97;;
17488;SDS011;8861;52.644;4.734;2022-07-09T14:31:53;4.17;;;1.77;;
17488;SDS011;8861;52.644;4.734;2022-07-09T14:34:20;4.47;;;1.60;;
17488;SDS011;8861;52.644;4.734;2022-07-09T14:36:48;5.53;;;1.77;;
17488;SDS011;8861;52.644;4.734;2022-07-09T14:39:15;2.33;;;1.37;;
17488;SDS011;8861;52.644;4.734;2022-07-09T14:41:44;5.07;;;1.50;;
17488;SDS011;8861;52.644;4.734;2022-07-09T14:44:11;3.90;;;1.60;;
17488;SDS011;8861;52.644;4.734;2022-07-09T14:46:38;5.43;;;1.90;;
17488;SDS011;8861;52.644;4.734;2022-07-09T14:49:05;6.60;;;1.67;;
17488;SDS011;8861;52.644;4.734;2022-07-09T14:51:32;6.17;;;1.80;;
17488;SDS011;8861;52.644;4.734;2022-07-09T14:54:01;5.13;;;1.47;;
17488;SDS011;8861;52.644;4.734;2022-07-09T14:56:29;3.80;;;1.50;;
17488;SDS011;8861;52.644;4.734;2022-07-09T14:58:57;5.17;;;1.50;;
17488;SDS011;8861;52.644;4.734;2022-07-09T15:01:24;4.90;;;1.47;;
17488;SDS011;8861;52.644;4.734;2022-07-09T15:03:52;3.80;;;1.50;;
17488;SDS011;8861;52.644;4.734;2022-07-09T15:06:18;3.70;;;1.50;;